Airfield :
LOGIN :

Register | Disclaimer

   EN    FR    IT 

 










Legend :    VFR   Marginal VFR   IFR   Intensive IFR   Very Intensive IFR
Visi :
Ceiling :
>= 8 km
>= 3000ft
5 to 8 km
1000 to 3000 ft
1500m to 5 km
500 to 1000 ft
800 to 1500m
200 to 500 ft
< 800m
< 200 ft
Symbols :   Thunderstorms  Fog  Heavy snow  Heavy precipitations  Wind > 20 kt
SIGMETs :     Misc.  Thunderstorms  Icing  Turbulence  Mountain Waves  Volcanic Ashes







- Airport Elevation : 117 ft
- IATA code : NWI
- Download approach charts


EGSH - Norwich

CURRENT METAR :
  • 191420Z 22024G36KT 190V250 9999 FEW046 23/12 Q1008 NOSIG

EXPIRED METARs :
  • 191350Z 22024G37KT 190V250 9999 FEW046 25/13 Q1008
  • 191320Z 22025G38KT 180V250 9999 SCT041 23/12 Q1008
  • 191250Z 22023G34KT 9999 SCT038 23/13 Q1008 NOSIG
  • 191220Z 21024G38KT 9999 SCT038 23/14 Q1008 NOSIG
  • 191150Z 22023G34KT 180V250 9999 SCT037 22/13 Q1008 NOSIG

TAF TAF EGSH
Valid from the 19 at 15:00 until the 20 at 00:00 UTC


191401Z 1915/1924 20020G30KT 9999 FEW025
BECMG 1915/1917 20012KT
PROB30
TEMPO 1916/1918 4000 RADZ BKN014
PROB30
TEMPO 1917/1919 26015G25KT
ATIS : +44 1603 420 640
No reported NOTAMs for that airfield.
4 SIGMETs reported for the London FIR (EGTT) :
 
Severe mountain waves
EGTT SIGMET 11 VALID 191300/191700 EGRR
EGTT LONDON FIR SEV MTW FCST WI N5311 E00322 - N5143 E00210 - N4947 W00545 - N5139 W00647 - N5220 W00530 - N5500 W00530 - N5500 W00100 - N5311 E00322 FL030/250 STNR NC=
Severe turbulence
EGTT SIGMET 10 VALID 191300/191700 EGRR
EGTT LONDON FIR SEV TURB FCST N OF N4958 AND E OF W00534 SFC/FL060 MOV ENE 40KT WKN=
SIGMET 08 cancelation
EGTT SIGMET 09 VALID 191245/191632 EGRR
EGTT LONDON FIR CNL SIGMET 08 191232/191632=
SIGMET 08  CANCELED :
Severe turbulence
EGTT SIGMET 08 VALID 191232/191632 EGRR
EGTT LONDON FIR SEV TURB FCST N OF N4955 AND E OF W00546 SFC/FL060 MOV ENE 40KT WKN=



MET'MAP, your aeronautical weather chart ! - Copyright ORBIFLY December 2007 - Disclaimer

ORBIFLY MET'MAP TEAM :

Programming & Development : Alexandra Zaïnal
Concept & Development : Baudouin d'Aumeries
Co-Development & Prog : Marc-Olivier Méhu
Technical & hardware support : Manuel Goepfert

Contact : metmap@orbifly.com




SOURCES & CREDITS :

   NOAA